Time;durP1;ratioP1;P1;durP2;ratioP2;P2;SDS_P1;SDS_P2;PMS_P1;PMS_P2;Temp;Humidity;BMP_temperature;BMP_pressure;BME280_temperature;BME280_humidity;BME280_pressure;Samples;Min_cycle;Max_cycle;Signal;HPM_P1;HPM_P2
2023/07/13 00:01:06;;;;;;;5.97;3.80;;;19.70;85.40;;;22.04;57.92;101181.06;5036934;28;20198;-58
2023/07/13 00:03:34;;;;;;;3.47;3.13;;;19.60;85.80;;;21.98;58.10;101165.94;5038103;28;20925;-58
2023/07/13 00:06:02;;;;;;;3.47;3.17;;;19.60;85.90;;;21.96;58.22;101176.09;5040319;28;20194;-57
2023/07/13 00:08:32;;;;;;;4.93;3.73;;;19.60;86.30;;;21.94;58.36;101172.84;5037874;28;20195;-58
2023/07/13 00:11:00;;;;;;;4.53;3.63;;;19.50;86.50;;;21.88;58.31;101177.28;5038693;28;20587;-57
2023/07/13 00:13:27;;;;;;;5.70;4.27;;;19.50;86.50;;;21.84;58.47;101183.34;5037876;28;20230;-59
2023/07/13 00:15:58;;;;;;;3.60;3.30;;;19.50;86.50;;;21.81;58.35;101181.13;5036176;28;20201;-57
2023/07/13 00:18:25;;;;;;;7.23;4.20;;;19.40;86.50;;;21.75;58.31;101177.50;5035922;28;20229;-60
2023/07/13 00:20:52;;;;;;;4.20;3.40;;;19.40;86.50;;;21.70;58.64;101185.47;5040028;28;20224;-58
2023/07/13 00:23:19;;;;;;;5.47;4.27;;;19.30;86.30;;;21.68;58.43;101181.41;5056393;28;20214;-59
2023/07/13 00:25:46;;;;;;;6.17;4.03;;;19.30;86.40;;;21.63;58.37;101190.16;5056072;28;20234;-59
2023/07/13 00:28:13;;;;;;;5.50;3.43;;;19.20;86.40;;;21.67;58.75;101187.78;5056063;28;20618;-57
2023/07/13 00:30:40;;;;;;;4.10;3.50;;;19.20;86.50;;;21.67;57.86;101190.47;5052579;28;20218;-57
2023/07/13 00:33:08;;;;;;;5.20;3.87;;;19.20;86.50;;;21.63;58.33;101194.69;5036022;28;20230;-58
2023/07/13 00:35:44;;;;;;;5.83;3.63;;;19.20;86.50;;;21.61;58.22;101192.22;5036253;28;20201;-58
2023/07/13 00:38:11;;;;;;;4.70;4.20;;;19.20;86.60;;;21.56;58.15;101187.56;5035963;28;20202;-60
2023/07/13 00:40:38;;;;;;;10.33;4.10;;;19.20;86.50;;;21.53;58.75;101189.94;5036229;28;20272;-59
2023/07/13 00:43:12;;;;;;;4.53;3.63;;;19.10;86.50;;;21.52;58.18;101194.47;5039026;28;20285;-58
2023/07/13 00:46:18;;;;;;;5.10;3.77;;;19.10;86.50;;;21.42;58.84;101199.59;5035717;28;20202;-58
2023/07/13 00:48:49;;;;;;;6.13;3.97;;;19.10;86.60;;;21.43;58.39;101206.59;5034948;28;20209;-60
2023/07/13 00:51:24;;;;;;;4.60;3.90;;;19.10;86.60;;;21.44;58.48;101197.50;5035791;28;20209;-60
2023/07/13 00:53:58;;;;;;;4.47;4.07;;;19.10;86.60;;;21.43;58.75;101195.06;5035244;28;20214;-56
2023/07/13 00:56:26;;;;;;;5.70;4.23;;;19.00;86.70;;;21.42;58.94;101196.09;5035570;28;20687;-58
2023/07/13 00:58:54;;;;;;;8.00;4.20;;;19.00;86.80;;;21.40;58.78;101199.00;5034855;28;20233;-58
2023/07/13 01:01:21;;;;;;;6.17;3.67;;;19.00;87.00;;;21.39;58.84;101197.41;5041495;28;20196;-56
2023/07/13 01:03:50;;;;;;;5.67;3.93;;;19.00;87.10;;;21.42;58.62;101198.78;5054912;28;20546;-59
2023/07/13 01:06:17;;;;;;;5.43;4.20;;;19.00;87.40;;;21.39;58.71;101200.09;5054775;28;20206;-56
2023/07/13 01:08:44;;;;;;;5.53;4.30;;;18.90;87.40;;;21.39;59.25;101194.72;5054746;28;20196;-58
2023/07/13 01:11:11;;;;;;;4.47;4.07;;;19.00;87.50;;;21.44;58.52;101194.81;5054124;28;20280;-58
2023/07/13 01:13:38;;;;;;;5.03;4.40;;;19.00;87.40;;;21.46;58.59;101197.28;5054903;28;20213;-59
2023/07/13 01:16:21;;;;;;;5.77;4.43;;;19.00;87.40;;;21.40;58.63;101206.22;5054882;28;20194;-58
2023/07/13 01:18:50;;;;;;;4.70;4.30;;;19.00;87.50;;;21.35;59.04;101198.91;5053900;28;20182;-59
2023/07/13 01:21:18;;;;;;;5.17;4.50;;;18.90;87.30;;;21.36;58.82;101197.88;5046794;28;20226;-60
2023/07/13 01:23:46;;;;;;;7.77;4.27;;;18.90;87.10;;;21.34;58.41;101183.91;5034968;28;20218;-60
2023/07/13 01:26:12;;;;;;;4.37;3.90;;;18.90;86.80;;;21.31;58.71;101187.03;5035183;28;20193;-59
2023/07/13 01:28:40;;;;;;;9.10;5.13;;;18.90;86.60;;;21.26;58.30;101184.25;5034747;28;20206;-60
2023/07/13 01:31:08;;;;;;;5.47;4.20;;;18.90;86.80;;;21.27;58.73;101182.38;5040927;28;20199;-59
2023/07/13 01:33:37;;;;;;;5.63;4.40;;;18.90;86.70;;;21.29;58.58;101178.41;5054434;28;20568;-56
2023/07/13 01:36:05;;;;;;;7.27;4.80;;;18.90;86.60;;;21.33;58.05;101182.25;5053995;28;20268;-58
2023/07/13 01:38:35;;;;;;;6.30;5.10;;;18.80;86.60;;;21.32;57.78;101185.97;5054015;28;20202;-56
2023/07/13 01:41:02;;;;;;;6.03;4.20;;;18.80;86.50;;;21.33;58.25;101184.09;5045498;28;20210;-58
2023/07/13 01:43:30;;;;;;;5.53;4.20;;;18.80;86.50;;;21.34;58.37;101178.53;5035851;28;20193;-57
2023/07/13 01:45:57;;;;;;;4.67;3.93;;;18.80;86.50;;;21.36;57.68;101184.47;5033161;28;20213;-58
2023/07/13 01:48:44;;;;;;;6.17;4.30;;;18.80;86.40;;;21.39;58.46;101186.69;5033967;28;20665;-58
2023/07/13 01:51:10;;;;;;;4.83;3.97;;;18.80;86.80;;;21.45;57.91;101188.41;5034941;28;20281;-57
2023/07/13 01:53:39;;;;;;;6.47;4.43;;;18.90;86.90;;;21.53;58.18;101190.75;5034303;28;20229;-57
2023/07/13 01:56:06;;;;;;;4.53;4.10;;;18.90;87.00;;;21.64;58.17;101190.94;5034145;28;20191;-56
2023/07/13 01:58:33;;;;;;;4.87;3.90;;;19.00;87.10;;;21.78;57.36;101186.94;5033786;28;20195;-58
2023/07/13 02:00:59;;;;;;;4.67;3.67;;;19.10;87.20;;;21.92;57.39;101188.34;5040670;28;20190;-62
2023/07/13 02:03:26;;;;;;;6.33;4.80;;;19.20;86.90;;;21.99;56.60;101186.31;5053830;28;20669;-58
2023/07/13 02:05:53;;;;;;;6.53;4.13;;;19.30;85.90;;;22.00;56.43;101193.34;5054002;28;20186;-58
2023/07/13 02:08:20;;;;;;;6.23;3.70;;;19.40;85.50;;;22.05;56.71;101185.38;5054005;28;20685;-59
2023/07/13 02:10:49;;;;;;;6.90;3.80;;;19.40;85.50;;;22.17;56.40;101191.53;5051867;28;20736;-55
2023/07/13 02:13:16;;;;;;;6.00;2.87;;;19.50;85.50;;;22.27;56.21;101186.34;5043042;28;20293;-59
2023/07/13 02:15:43;;;;;;;6.77;3.73;;;19.50;85.10;;;22.39;55.55;101189.81;5050587;28;20222;-59
2023/07/13 02:18:10;;;;;;;5.73;4.00;;;19.60;84.30;;;22.45;55.06;101183.47;5033765;28;20233;-58
2023/07/13 02:20:36;;;;;;;6.47;4.40;;;19.70;83.70;;;22.46;54.75;101189.66;5033611;28;20210;-57
2023/07/13 02:23:03;;;;;;;5.90;4.23;;;19.80;83.20;;;22.40;54.45;101194.09;5034033;28;20190;-56
2023/07/13 02:25:34;;;;;;;6.67;4.63;;;19.80;82.30;;;22.29;54.18;101189.63;5036497;28;20202;-58
2023/07/13 02:28:03;;;;;;;7.70;4.07;;;19.80;81.60;;;22.23;54.56;101186.00;5053697;28;20197;-57
2023/07/13 02:30:30;;;;;;;5.77;3.90;;;19.70;81.70;;;22.15;54.43;101183.72;5053791;28;20530;-59
2023/07/13 02:32:57;;;;;;;6.40;3.67;;;19.70;81.60;;;22.08;54.47;101177.66;5053096;28;20217;-59
2023/07/13 02:35:25;;;;;;;6.70;4.63;;;19.70;81.70;;;22.03;54.41;101176.78;5051949;28;20198;-59
2023/07/13 02:37:52;;;;;;;7.40;5.20;;;19.60;81.70;;;21.94;54.48;101180.91;5042322;28;20613;-61
2023/07/13 02:40:20;;;;;;;6.63;4.80;;;19.50;81.70;;;21.80;54.54;101184.88;5043826;28;20237;-57
2023/07/13 02:42:47;;;;;;;8.27;4.93;;;19.40;81.90;;;21.71;55.15;101183.59;5035902;28;20204;-56
2023/07/13 02:45:15;;;;;;;5.53;4.63;;;19.30;82.10;;;21.58;55.09;101182.00;5053604;28;20198;-57
2023/07/13 02:47:42;;;;;;;8.73;5.00;;;19.20;82.20;;;21.44;55.85;101176.06;5053515;28;20276;-54
2023/07/13 02:50:10;;;;;;;9.83;4.83;;;19.10;82.30;;;21.36;56.01;101164.91;5035358;28;20222;-56
2023/07/13 02:52:37;;;;;;;8.87;5.03;;;19.00;82.30;;;21.28;55.33;101168.75;5033867;28;20539;-59
2023/07/13 02:55:04;;;;;;;8.47;4.57;;;19.00;82.40;;;21.24;55.38;101169.44;5037694;28;20209;-58
2023/07/13 02:57:32;;;;;;;5.40;3.97;;;18.90;82.60;;;21.23;55.71;101171.31;5038454;28;20292;-58
2023/07/13 02:59:59;;;;;;;7.50;4.10;;;18.80;82.50;;;21.20;55.75;101174.47;5058999;28;20214;-59
2023/07/13 03:02:28;;;;;;;9.97;4.53;;;18.80;82.60;;;21.20;55.63;101187.03;5057326;28;20208;-56
2023/07/13 03:04:55;;;;;;;8.03;4.40;;;18.80;82.50;;;21.23;55.48;101183.88;5057101;28;20186;-61
2023/07/13 03:07:22;;;;;;;9.87;3.83;;;18.80;82.70;;;21.25;54.94;101195.97;5057203;28;20193;-58
2023/07/13 03:09:54;;;;;;;8.23;4.10;;;18.80;82.60;;;21.20;55.26;101181.69;5041684;28;20222;-59
2023/07/13 03:12:21;;;;;;;9.60;4.40;;;18.70;82.30;;;21.18;55.36;101184.56;5037181;28;20191;-58
2023/07/13 03:14:48;;;;;;;7.37;4.67;;;18.70;82.50;;;21.17;54.95;101180.28;5036888;28;20666;-54
2023/07/13 03:17:15;;;;;;;6.80;3.97;;;18.70;82.40;;;21.18;55.09;101181.91;5037204;28;20187;-58
2023/07/13 03:19:43;;;;;;;6.40;4.13;;;18.70;82.50;;;21.22;55.76;101182.25;5049480;28;20221;-58
2023/07/13 03:22:11;;;;;;;8.90;4.13;;;18.70;82.80;;;21.24;55.34;101186.34;5056500;28;20224;-59
2023/07/13 03:24:38;;;;;;;9.30;3.77;;;18.70;82.40;;;21.31;54.79;101187.03;5057384;28;20200;-59
2023/07/13 03:27:07;;;;;;;8.40;3.60;;;18.70;82.50;;;21.45;54.70;101193.78;5056799;28;20716;-58
2023/07/13 03:29:34;;;;;;;8.27;3.67;;;18.80;82.50;;;21.62;54.57;101193.03;5050823;28;20215;-59
2023/07/13 03:32:02;;;;;;;5.03;3.37;;;18.90;82.70;;;21.73;54.02;101200.28;5056689;28;20225;-58
2023/07/13 03:34:29;;;;;;;9.67;3.97;;;19.00;82.10;;;21.83;53.75;101195.09;5057098;28;20260;-59
2023/07/13 03:36:57;;;;;;;9.50;3.77;;;19.10;81.90;;;21.92;53.93;101199.88;5058555;28;20198;-57
2023/07/13 03:39:24;;;;;;;9.03;3.50;;;19.20;81.50;;;22.00;53.68;101196.00;5061643;28;20213;-61
2023/07/13 03:41:51;;;;;;;7.60;3.20;;;19.30;81.40;;;22.03;53.16;101201.72;5061084;28;20209;-59
2023/07/13 03:44:19;;;;;;;5.23;3.10;;;19.30;80.70;;;22.12;53.18;101205.66;5058360;28;20284;-56
2023/07/13 03:46:46;;;;;;;4.63;3.17;;;19.40;80.80;;;22.20;52.84;101202.56;5056130;28;20190;-59
2023/07/13 03:49:13;;;;;;;4.10;3.00;;;19.50;80.50;;;22.29;52.45;101205.72;5055373;28;20213;-57
2023/07/13 03:51:40;;;;;;;8.37;3.40;;;19.50;80.40;;;22.34;52.41;101203.13;5056698;28;20277;-58
2023/07/13 03:54:08;;;;;;;5.70;2.80;;;19.50;80.00;;;22.41;52.32;101214.53;5048094;28;20234;-59
2023/07/13 03:56:35;;;;;;;7.33;2.77;;;19.60;80.00;;;22.44;52.19;101215.91;5056373;28;20186;-58
2023/07/13 03:59:02;;;;;;;3.40;2.40;;;19.60;79.70;;;22.47;51.94;101218.09;5053596;28;20217;-55
2023/07/13 04:01:29;;;;;;;6.67;3.73;;;19.70;79.60;;;22.45;51.85;101214.84;5036331;28;20191;-58
2023/07/13 04:03:56;;;;;;;9.20;3.00;;;19.70;79.30;;;22.44;51.84;101219.38;5035373;28;20244;-57
2023/07/13 04:06:27;;;;;;;5.03;2.87;;;19.70;79.30;;;22.45;51.93;101214.84;5036209;28;20187;-59
2023/07/13 04:08:57;;;;;;;7.80;3.00;;;19.70;79.30;;;22.47;52.03;101210.84;5036299;28;20730;-60
2023/07/13 04:11:29;;;;;;;6.77;2.67;;;19.70;79.50;;;22.52;51.66;101210.97;5055984;28;20195;-58
2023/07/13 04:13:56;;;;;;;8.17;2.50;;;19.80;79.40;;;22.58;51.85;101209.19;5055894;28;20293;-56
2023/07/13 04:16:24;;;;;;;6.60;2.80;;;19.80;79.40;;;22.60;51.73;101207.88;5043749;28;20214;-58
2023/07/13 04:18:59;;;;;;;5.53;2.87;;;19.80;79.10;;;22.62;51.76;101213.84;5035329;28;20202;-58
2023/07/13 04:21:27;;;;;;;5.57;2.70;;;19.80;79.20;;;22.65;51.34;101213.38;5055910;28;20708;-59
2023/07/13 04:23:54;;;;;;;5.40;2.50;;;19.80;79.10;;;22.68;51.65;101214.75;5055673;28;20713;-58
2023/07/13 04:26:23;;;;;;;6.37;2.40;;;19.80;78.70;;;22.68;51.26;101210.19;5055634;28;20253;-58
2023/07/13 04:28:51;;;;;;;5.53;2.57;;;19.90;78.70;;;22.69;51.29;101211.84;5054940;28;20193;-58
2023/07/13 04:31:19;;;;;;;5.60;2.60;;;19.90;78.70;;;22.68;51.16;101214.75;5055461;28;20194;-58
2023/07/13 04:33:46;;;;;;;6.77;2.50;;;19.90;78.20;;;22.70;51.05;101218.03;5055313;28;20214;-58
2023/07/13 04:36:15;;;;;;;7.23;3.10;;;19.90;78.20;;;22.65;51.07;101215.25;5043010;28;20197;-59
2023/07/13 04:38:43;;;;;;;6.40;2.93;;;19.90;77.80;;;22.48;51.24;101225.09;5035214;28;20285;-57
2023/07/13 04:41:10;;;;;;;7.53;2.63;;;19.90;77.80;;;22.43;52.00;101217.78;5035180;28;20204;-57
2023/07/13 04:43:37;;;;;;;7.40;3.23;;;19.90;78.00;;;22.47;51.63;101220.78;5045182;28;20213;-56
2023/07/13 04:46:09;;;;;;;10.20;3.13;;;19.90;78.30;;;22.56;51.57;101220.13;5053095;28;20194;-59
2023/07/13 04:48:38;;;;;;;7.37;2.97;;;19.90;78.30;;;22.65;51.53;101226.81;5034552;28;20202;-57
2023/07/13 04:51:05;;;;;;;6.70;2.93;;;20.00;78.20;;;22.74;51.33;101222.66;5044686;28;20213;-60
2023/07/13 04:53:34;;;;;;;8.10;2.93;;;20.00;78.20;;;22.84;51.15;101225.50;5054771;28;20301;-59
2023/07/13 04:56:01;;;;;;;8.03;2.83;;;20.10;78.20;;;22.92;50.98;101226.19;5055181;28;20182;-57
2023/07/13 04:58:29;;;;;;;7.07;2.90;;;20.10;78.00;;;22.92;50.57;101226.97;5039723;28;20209;-57
2023/07/13 05:01:00;;;;;;;4.70;2.30;;;20.10;77.60;;;22.96;50.47;101219.25;5034796;28;20284;-58
2023/07/13 05:03:30;;;;;;;5.07;2.60;;;20.10;77.60;;;22.98;50.52;101225.19;5034719;28;20202;-59
2023/07/13 05:05:59;;;;;;;6.60;2.40;;;20.10;77.60;;;23.00;50.34;101223.06;5034883;28;20244;-58
2023/07/13 05:08:27;;;;;;;7.90;2.47;;;20.10;77.50;;;23.00;50.36;101228.44;5048185;28;20212;-60
2023/07/13 05:10:54;;;;;;;7.00;2.83;;;20.20;77.50;;;22.98;50.46;101238.63;5054521;28;20240;-59
2023/07/13 05:13:22;;;;;;;9.03;2.90;;;20.10;77.40;;;22.96;50.26;101232.69;5054593;28;20554;-59
2023/07/13 05:15:57;;;;;;;7.07;2.87;;;20.20;77.40;;;22.95;50.55;101241.78;5053265;28;20194;-55
2023/07/13 05:18:24;;;;;;;6.70;3.27;;;20.10;77.70;;;22.98;50.64;101241.31;5053835;28;20190;-58
2023/07/13 05:21:02;;;;;;;8.27;2.90;;;20.20;77.90;;;22.92;50.67;101247.66;5053722;28;20289;-57
2023/07/13 05:23:30;;;;;;;8.57;3.20;;;20.20;77.90;;;22.74;51.18;101249.50;5053791;28;20232;-58
2023/07/13 05:25:58;;;;;;;6.20;3.00;;;20.10;78.70;;;22.60;51.68;101253.50;5054265;28;20212;-60
2023/07/13 05:28:25;;;;;;;7.60;2.90;;;20.10;78.10;;;22.49;51.99;101246.31;5053554;28;20667;-59
2023/07/13 05:30:54;;;;;;;8.47;2.97;;;20.00;78.50;;;22.47;52.26;101251.09;5053953;28;20208;-60
2023/07/13 05:33:22;;;;;;;8.67;3.97;;;20.00;78.60;;;22.47;52.41;101253.78;5054223;28;20225;-60
2023/07/13 05:35:49;;;;;;;7.50;3.40;;;20.00;78.90;;;22.49;52.51;101265.09;5053358;28;20188;-58
2023/07/13 05:38:17;;;;;;;5.03;2.53;;;20.00;79.00;;;22.57;52.18;101259.34;5051776;28;20647;-59
2023/07/13 05:40:45;;;;;;;9.20;3.57;;;20.00;79.10;;;22.67;51.95;101259.56;5053334;28;20359;-57
2023/07/13 05:43:14;;;;;;;7.00;3.10;;;20.00;79.20;;;22.68;52.18;101263.88;5053393;28;20225;-59
2023/07/13 05:45:41;;;;;;;10.83;3.40;;;20.00;79.20;;;22.68;52.26;101258.50;5050095;28;20197;-58
2023/07/13 05:48:08;;;;;;;8.83;3.17;;;20.10;78.90;;;22.60;52.20;101261.56;5036786;28;20261;-58
2023/07/13 05:50:35;;;;;;;12.83;4.20;;;20.10;78.70;;;22.47;52.36;101267.22;5033565;28;20211;-60
2023/07/13 05:53:02;;;;;;;12.13;3.53;;;20.00;78.70;;;22.39;52.60;101272.97;5033997;28;20218;-59
2023/07/13 05:55:31;;;;;;;6.70;3.20;;;20.00;78.90;;;22.38;52.54;101273.19;5033728;28;20314;-59
2023/07/13 05:58:00;;;;;;;7.10;2.70;;;20.00;79.20;;;22.44;52.66;101275.72;5040385;28;20240;-60
2023/07/13 06:00:27;;;;;;;8.03;3.17;;;19.90;79.10;;;22.42;52.85;101271.66;5033301;28;20214;-57
2023/07/13 06:02:56;;;;;;;10.00;3.87;;;19.90;79.30;;;22.51;52.70;101273.72;5033597;28;20548;-61
2023/07/13 06:05:23;;;;;;;8.50;2.90;;;19.90;79.40;;;22.62;52.43;101278.28;5033661;28;20282;-59
2023/07/13 06:07:50;;;;;;;7.60;3.20;;;19.90;79.50;;;22.73;52.16;101272.03;5046002;28;20269;-61
2023/07/13 06:10:18;;;;;;;11.20;3.70;;;20.00;79.80;;;22.80;52.26;101271.88;5053275;28;20224;-55
2023/07/13 06:12:46;;;;;;;6.00;3.47;;;20.10;79.70;;;22.68;52.29;101274.59;5053136;28;20198;-60
2023/07/13 06:15:13;;;;;;;5.17;3.03;;;20.10;79.40;;;22.56;52.54;101289.91;5052827;28;20627;-59
2023/07/13 06:17:43;;;;;;;5.87;3.20;;;20.10;79.40;;;22.45;53.06;101284.59;5041964;28;20277;-59
2023/07/13 06:20:11;;;;;;;6.77;3.10;;;20.00;79.50;;;22.59;52.76;101283.25;5033290;28;20218;-61
2023/07/13 06:22:37;;;;;;;7.73;3.33;;;20.10;79.90;;;22.71;52.62;101278.69;5033237;28;20187;-59
2023/07/13 06:25:06;;;;;;;6.93;3.50;;;20.10;79.90;;;22.72;52.59;101281.16;5033481;28;20620;-59
2023/07/13 06:27:33;;;;;;;8.50;3.40;;;20.10;79.40;;;22.92;52.21;101290.63;5041220;28;20189;-56
2023/07/13 06:30:02;;;;;;;9.77;3.00;;;20.20;79.60;;;23.13;52.02;101292.59;5052495;28;20244;-59
2023/07/13 06:32:28;;;;;;;9.97;4.00;;;20.30;79.70;;;23.26;51.35;101292.25;5052960;28;20190;-57
2023/07/13 06:34:55;;;;;;;8.07;3.37;;;20.40;79.10;;;23.37;51.15;101299.44;5052533;28;20213;-60
2023/07/13 06:37:23;;;;;;;7.97;3.17;;;20.50;78.90;;;23.43;51.05;101293.09;5046161;28;20655;-60
2023/07/13 06:39:49;;;;;;;9.80;3.97;;;20.60;78.70;;;23.37;51.12;101291.38;5032245;28;20222;-58
2023/07/13 06:42:17;;;;;;;8.40;3.67;;;20.60;78.40;;;23.36;51.22;101292.47;5033162;28;20276;-59
2023/07/13 06:44:44;;;;;;;9.63;3.47;;;20.70;78.20;;;23.40;51.30;101291.72;5052095;28;20221;-59
2023/07/13 06:47:12;;;;;;;7.97;3.27;;;20.70;78.10;;;23.55;51.02;101291.13;5052532;28;20286;-59
2023/07/13 06:49:39;;;;;;;9.13;4.10;;;20.80;78.30;;;23.66;50.48;101281.31;5052670;28;20210;-57
2023/07/13 06:52:06;;;;;;;11.10;3.90;;;20.80;77.80;;;23.68;50.60;101288.09;5052802;28;20608;-59
2023/07/13 06:54:34;;;;;;;6.80;3.47;;;20.90;77.70;;;23.62;50.80;101286.41;5053697;28;20308;-58
2023/07/13 06:57:02;;;;;;;10.20;4.07;;;21.00;77.50;;;23.56;50.65;101287.38;5048889;28;20277;-57
2023/07/13 06:59:29;;;;;;;7.43;3.13;;;21.00;78.10;;;23.58;51.05;101296.03;5032449;28;20293;-59
2023/07/13 07:01:55;;;;;;;7.23;3.20;;;21.00;77.40;;;23.72;50.79;101296.50;5033378;28;20218;-60
2023/07/13 07:04:24;;;;;;;5.17;2.83;;;21.10;77.60;;;23.90;50.29;101301.56;5032934;28;20262;-59
2023/07/13 07:06:51;;;;;;;9.90;3.73;;;21.10;77.60;;;24.07;49.87;101311.25;5034609;28;20198;-59
2023/07/13 07:09:18;;;;;;;6.77;3.20;;;21.20;77.30;;;24.10;49.45;101305.38;5052142;28;20693;-61
2023/07/13 07:11:45;;;;;;;7.63;3.40;;;21.20;76.60;;;24.14;49.01;101306.50;5052762;28;20290;-60
2023/07/13 07:14:29;;;;;;;8.30;3.53;;;21.30;76.50;;;24.20;49.31;101310.06;5053263;28;20221;-60
2023/07/13 07:16:55;;;;;;;6.63;2.87;;;21.30;76.50;;;24.27;49.28;101304.50;5049990;28;20190;-60
2023/07/13 07:19:24;;;;;;;8.40;3.40;;;21.40;76.70;;;24.35;49.23;101312.94;5032369;28;20214;-60
2023/07/13 07:21:51;;;;;;;7.13;3.47;;;21.40;76.50;;;24.44;48.90;101302.56;5032529;28;20237;-60
2023/07/13 07:24:18;;;;;;;8.43;3.27;;;21.50;76.30;;;24.50;49.04;101309.63;5032841;28;20277;-59
2023/07/13 07:26:45;;;;;;;10.60;3.37;;;21.60;76.20;;;24.43;49.48;101306.31;5033778;28;20190;-60
2023/07/13 07:29:15;;;;;;;11.23;3.30;;;21.70;75.90;;;24.57;49.04;101310.25;5051438;28;20245;-59
2023/07/13 07:31:44;;;;;;;8.00;3.13;;;21.80;76.10;;;24.77;48.86;101307.81;5052428;28;20201;-65
2023/07/13 07:34:14;;;;;;;5.47;3.33;;;21.90;76.10;;;24.93;48.48;101309.56;5052551;28;20190;-61
2023/07/13 07:36:43;;;;;;;7.20;3.43;;;22.00;75.40;;;25.02;47.34;101305.34;5052544;28;20631;-61
2023/07/13 07:39:13;;;;;;;6.53;3.03;;;22.10;74.80;;;25.07;47.57;101307.25;5049466;28;20572;-61
2023/07/13 07:41:40;;;;;;;7.00;3.47;;;22.10;74.20;;;25.01;47.64;101317.16;5055673;28;20201;-57
2023/07/13 07:44:10;;;;;;;9.07;3.10;;;22.20;73.90;;;25.05;47.07;101312.91;5054070;28;20201;-60
2023/07/13 07:46:40;;;;;;;4.43;2.70;;;22.20;73.50;;;25.06;47.30;101303.75;5056100;28;20248;-60
2023/07/13 07:49:08;;;;;;;9.57;3.43;;;22.20;73.20;;;25.08;46.91;101304.31;5036381;28;20297;-60
2023/07/13 07:51:35;;;;;;;9.50;3.37;;;22.20;73.30;;;25.19;46.88;101300.66;5038901;28;20585;-61
2023/07/13 07:54:04;;;;;;;7.13;3.83;;;22.30;73.60;;;25.23;47.02;101309.84;5049942;28;20730;-59
2023/07/13 07:56:31;;;;;;;7.87;4.10;;;22.40;73.50;;;25.23;46.68;101309.84;5043124;28;20218;-57
2023/07/13 07:59:01;;;;;;;8.77;4.20;;;22.40;73.00;;;25.28;46.87;101306.38;5042059;28;20674;-59
2023/07/13 08:01:31;;;;;;;11.93;4.50;;;22.50;72.60;;;25.19;45.92;101306.03;5048418;28;20197;-58
2023/07/13 08:04:06;;;;;;;8.97;5.00;;;22.50;71.60;;;25.18;46.10;101304.41;5042045;28;20546;-57
2023/07/13 08:06:36;;;;;;;6.33;3.47;;;22.60;72.00;;;24.91;47.03;101310.91;5050452;28;20733;-60
2023/07/13 08:09:08;;;;;;;8.13;3.40;;;22.50;71.40;;;24.98;47.04;101312.31;5053104;28;20218;-60
2023/07/13 08:11:35;;;;;;;7.07;3.13;;;22.50;71.20;;;24.95;46.73;101320.09;5037932;28;20226;-59
2023/07/13 08:14:05;;;;;;;4.57;2.83;;;22.60;71.20;;;25.14;46.12;101322.16;5060622;28;20189;-60
2023/07/13 08:16:33;;;;;;;7.00;3.07;;;22.60;70.80;;;25.34;45.67;101319.63;5044277;28;20214;-59
2023/07/13 08:19:00;;;;;;;6.77;3.27;;;22.70;70.70;;;25.64;45.48;101326.34;5039463;28;20264;-58
2023/07/13 08:21:28;;;;;;;4.90;3.10;;;22.70;70.10;;;25.94;44.43;101311.16;5049454;28;20208;-56
2023/07/13 08:23:59;;;;;;;8.00;3.10;;;22.80;69.90;;;26.60;44.25;101314.94;5046298;28;20639;-60
2023/07/13 08:26:28;;;;;;;8.13;3.13;;;23.00;70.30;;;27.06;42.99;101315.03;5034667;28;20205;-56
2023/07/13 08:28:55;;;;;;;6.30;3.10;;;23.30;69.40;;;27.18;42.48;101321.00;5041424;28;20222;-60
2023/07/13 08:31:22;;;;;;;7.20;3.03;;;23.60;68.80;;;27.25;42.16;101316.13;5044036;28;20680;-60
2023/07/13 08:33:55;;;;;;;5.03;3.43;;;23.70;68.40;;;27.58;41.92;101323.72;5041186;28;20204;-59
2023/07/13 08:36:23;;;;;;;8.57;3.60;;;23.90;67.70;;;28.41;40.37;101316.72;5041461;28;20297;-60
2023/07/13 08:38:50;;;;;;;7.57;2.90;;;24.20;67.20;;;29.44;39.42;101311.16;5043709;28;20199;-60
2023/07/13 08:41:19;;;;;;;9.27;3.73;;;24.60;67.10;;;30.23;36.80;101307.84;5045521;28;20209;-60
2023/07/13 08:43:56;;;;;;;8.53;3.80;;;25.20;64.30;;;30.41;36.40;101315.25;5038697;28;20281;-61
2023/07/13 08:46:35;;;;;;;6.87;3.17;;;25.60;61.90;;;30.70;35.66;101310.50;5038492;28;20198;-60
2023/07/13 08:49:06;;;;;;;5.33;3.33;;;26.00;60.00;;;31.40;34.26;101303.09;5043407;28;20283;-60
2023/07/13 08:51:43;;;;;;;4.93;2.80;;;26.40;59.80;;;32.47;33.36;101305.38;5043677;28;20185;-60
2023/07/13 08:54:21;;;;;;;4.23;2.80;;;26.90;59.10;;;33.82;31.97;101303.13;5042034;28;20247;-59
2023/07/13 08:56:52;;;;;;;4.50;3.13;;;27.50;57.80;;;34.94;29.45;101303.31;5043286;28;20230;-58
2023/07/13 08:59:27;;;;;;;3.57;2.33;;;28.20;56.40;;;35.40;29.30;101306.13;5042474;28;20218;-60
2023/07/13 09:02:25;;;;;;;6.60;3.07;;;28.90;54.30;;;35.77;26.00;101299.91;5043680;28;20222;-58
2023/07/13 09:04:59;;;;;;;5.83;2.87;;;29.50;51.00;;;35.16;28.53;101300.44;5042228;28;20222;-59
2023/07/13 09:07:55;;;;;;;5.87;2.83;;;29.80;49.20;;;35.16;28.49;101312.16;5044644;28;20255;-59
2023/07/13 09:10:30;;;;;;;3.33;2.50;;;30.00;48.30;;;34.97;27.81;101310.88;5044293;28;20602;-60
2023/07/13 09:13:19;;;;;;;6.37;2.73;;;30.10;47.50;;;35.17;27.99;101310.22;5044081;28;20221;-60
2023/07/13 09:15:50;;;;;;;5.17;2.73;;;30.10;46.70;;;35.79;26.79;101311.34;5043278;28;20222;-58
2023/07/13 09:18:27;;;;;;;4.75;2.88;;;30.30;46.90;;;35.33;26.61;101308.56;5044070;28;20198;-58
2023/07/13 09:21:02;;;;;;;8.10;3.00;;;30.40;44.30;;;34.87;27.42;101313.97;5042784;28;20221;-59
2023/07/13 09:23:30;;;;;;;5.90;2.83;;;30.30;44.20;;;34.51;27.23;101314.25;5043901;28;20316;-60
2023/07/13 09:26:04;;;;;;;6.40;3.17;;;30.20;44.70;;;34.88;27.73;101315.53;5040519;28;20191;-59
2023/07/13 09:28:41;;;;;;;5.47;2.80;;;30.10;45.60;;;35.24;27.31;101307.78;5042147;28;20195;-61
2023/07/13 09:31:19;;;;;;;7.22;3.33;;;30.10;45.00;;;35.74;26.35;101317.00;5035200;28;20293;-61
2023/07/13 09:33:46;;;;;;;4.20;3.08;;;30.30;45.20;;;36.24;25.02;101313.53;5045322;28;20304;-60
2023/07/13 09:36:21;;;;;;;4.80;3.03;;;30.40;43.90;;;36.42;25.11;101315.03;5032494;28;20294;-61
2023/07/13 09:38:56;;;;;;;4.15;2.92;;;30.70;43.50;;;36.18;24.75;101321.19;5033983;28;20228;-60
2023/07/13 09:41:33;;;;;;;5.00;2.88;;;30.90;42.40;;;36.42;24.13;101323.28;5046189;28;20201;-59
2023/07/13 09:44:12;;;;;;;4.07;2.70;;;30.90;41.40;;;36.50;24.74;101311.44;5038763;28;20208;-59
2023/07/13 09:46:46;;;;;;;6.50;2.40;;;31.10;41.40;;;36.21;24.91;101319.69;5032573;28;20220;-59
2023/07/13 09:49:14;;;;;;;5.53;2.63;;;31.20;41.00;;;35.60;25.44;101312.88;5042121;28;20224;-60
2023/07/13 09:51:44;;;;;;;3.58;2.60;;;31.20;40.50;;;35.52;25.63;101309.03;5041975;28;20209;-59
2023/07/13 09:54:25;;;;;;;5.30;2.88;;;31.00;40.70;;;35.99;25.58;101305.13;5033506;28;20635;-60
2023/07/13 09:56:58;;;;;;;9.02;3.10;;;31.00;40.40;;;36.78;23.81;101298.78;5038852;28;20809;-60
2023/07/13 09:59:33;;;;;;;4.18;2.63;;;31.20;40.40;;;36.80;23.81;101303.94;5045616;28;20214;-61
2023/07/13 10:02:24;;;;;;;3.60;2.10;;;31.40;40.20;;;35.81;25.01;101309.06;5045758;28;20205;-59
2023/07/13 10:04:59;;;;;;;3.90;2.42;;;31.30;39.10;;;35.36;25.00;101327.09;5046990;28;20202;-58
2023/07/13 10:07:31;;;;;;;5.07;3.30;;;31.10;39.30;;;35.24;25.36;101311.34;5049613;28;20621;-61
2023/07/13 10:10:01;;;;;;;3.03;2.25;;;30.90;39.10;;;34.78;25.13;101304.94;5052201;28;20702;-59
2023/07/13 10:12:35;;;;;;;3.83;2.47;;;30.70;39.00;;;34.08;25.99;101307.88;5058764;28;20228;-59
2023/07/13 10:15:13;;;;;;;3.10;2.43;;;30.40;39.10;;;33.29;26.88;101316.00;5058964;28;20224;-59
2023/07/13 10:17:55;;;;;;;3.93;2.40;;;30.10;39.90;;;32.94;27.38;101311.41;5053123;28;20202;-60
2023/07/13 10:20:24;;;;;;;4.40;2.37;;;29.70;40.70;;;32.81;27.57;101310.34;5049570;28;20214;-61
2023/07/13 10:22:58;;;;;;;2.83;2.43;;;29.40;41.10;;;32.68;27.71;101308.47;5053022;28;20214;-59